createdAt,value
2019-03-31T00:00:37.476Z,9.20
2019-03-31T00:01:29.085Z,9.30
2019-03-31T00:02:17.219Z,9.30
2019-03-31T00:03:04.383Z,9.20
2019-03-31T00:03:51.215Z,9.20
2019-03-31T00:04:37.706Z,9.20
2019-03-31T00:05:24.103Z,9.20
2019-03-31T00:06:10.562Z,9.20
2019-03-31T00:06:57.020Z,9.10
2019-03-31T00:07:43.359Z,9.10
2019-03-31T00:08:29.855Z,9.10
2019-03-31T00:09:16.753Z,9.10
2019-03-31T00:10:03.731Z,9.00
2019-03-31T00:10:50.160Z,9.00
2019-03-31T00:11:36.549Z,9.00
2019-03-31T00:12:23.060Z,9.00
2019-03-31T00:13:09.668Z,9.00
2019-03-31T00:13:56.293Z,9.00
2019-03-31T00:14:44.940Z,9.00
2019-03-31T00:15:31.613Z,8.90
2019-03-31T00:16:18.508Z,8.80
2019-03-31T00:17:05.116Z,8.80
2019-03-31T00:17:52.001Z,8.80
2019-03-31T00:18:38.515Z,8.90
2019-03-31T00:19:25.016Z,8.90
2019-03-31T00:20:11.923Z,8.70
2019-03-31T00:20:58.476Z,8.70
2019-03-31T00:21:45.365Z,8.80
2019-03-31T00:22:31.886Z,8.80
2019-03-31T00:23:18.411Z,8.80
2019-03-31T00:24:04.851Z,8.80
2019-03-31T00:24:53.424Z,8.80
2019-03-31T00:25:46.636Z,8.80
2019-03-31T00:26:33.362Z,8.80
2019-03-31T00:27:19.986Z,8.70
2019-03-31T00:28:06.671Z,8.70
2019-03-31T00:28:53.826Z,8.70
2019-03-31T00:29:40.467Z,8.70
2019-03-31T00:30:27.097Z,8.70
2019-03-31T00:31:22.000Z,8.70
2019-03-31T00:32:02.426Z,8.70
2019-03-31T00:32:48.967Z,8.70
2019-03-31T00:33:35.516Z,8.70
2019-03-31T00:34:22.230Z,8.80
2019-03-31T00:35:09.462Z,8.70
2019-03-31T00:35:56.136Z,8.70
2019-03-31T00:36:43.272Z,8.70
2019-03-31T00:37:29.794Z,8.60
2019-03-31T00:38:16.467Z,8.60
2019-03-31T00:39:05.260Z,8.60
2019-03-31T00:39:52.425Z,8.50
2019-03-31T00:40:39.307Z,8.50
2019-03-31T00:41:25.759Z,8.50
2019-03-31T00:42:12.254Z,8.60
2019-03-31T00:42:59.395Z,8.60
2019-03-31T00:43:45.987Z,8.60
2019-03-31T00:44:32.459Z,8.60
2019-03-31T00:45:18.915Z,8.60
2019-03-31T00:46:05.602Z,8.60
2019-03-31T00:46:52.334Z,8.60
2019-03-31T00:47:39.329Z,8.50
2019-03-31T00:48:26.021Z,8.50
2019-03-31T00:49:12.639Z,8.50
2019-03-31T00:49:59.485Z,8.50
2019-03-31T00:50:46.539Z,8.50
2019-03-31T00:51:33.178Z,8.50
2019-03-31T00:52:19.796Z,8.50
2019-03-31T00:53:06.446Z,8.40
2019-03-31T00:53:53.685Z,8.40
2019-03-31T00:54:40.384Z,8.40
2019-03-31T00:55:27.016Z,8.40
2019-03-31T00:56:14.204Z,8.30
2019-03-31T00:57:00.888Z,8.30
2019-03-31T00:57:47.775Z,8.30
2019-03-31T00:58:34.724Z,8.30
2019-03-31T00:59:21.984Z,8.30
2019-03-31T01:00:11.139Z,8.30
2019-03-31T01:01:18.660Z,8.30
2019-03-31T01:02:09.498Z,8.20
2019-03-31T01:02:55.856Z,8.20
2019-03-31T01:03:42.286Z,8.20
2019-03-31T01:04:31.281Z,8.20
2019-03-31T01:05:17.561Z,8.20
2019-03-31T01:06:05.338Z,8.20
2019-03-31T01:06:53.587Z,8.20
2019-03-31T01:07:40.530Z,8.20
2019-03-31T01:08:31.039Z,8.30
2019-03-31T01:09:23.564Z,8.20
2019-03-31T01:10:10.544Z,8.20
2019-03-31T01:10:57.775Z,8.20
2019-03-31T01:11:44.592Z,8.20
2019-03-31T01:12:31.601Z,8.20
2019-03-31T01:13:18.311Z,8.20
2019-03-31T01:14:04.740Z,8.20
2019-03-31T01:14:51.647Z,8.30
2019-03-31T01:15:40.197Z,8.30
2019-03-31T01:16:28.847Z,8.30
2019-03-31T01:18:09.879Z,8.20
2019-03-31T01:18:56.487Z,8.20
2019-03-31T01:19:43.127Z,8.30
2019-03-31T01:20:30.010Z,8.30
2019-03-31T01:21:17.420Z,8.30
2019-03-31T01:22:04.435Z,8.30
2019-03-31T01:22:51.268Z,8.30
2019-03-31T01:23:37.750Z,8.40
2019-03-31T01:24:24.277Z,8.40
2019-03-31T01:25:12.925Z,8.50
2019-03-31T01:26:00.595Z,8.50
2019-03-31T01:26:47.588Z,8.50
2019-03-31T01:27:34.120Z,8.50
2019-03-31T01:28:21.117Z,8.60
2019-03-31T01:29:08.112Z,8.60
2019-03-31T01:29:54.866Z,8.60
2019-03-31T01:30:41.344Z,8.60
2019-03-31T01:31:28.622Z,8.60
2019-03-31T01:32:15.766Z,8.60
2019-03-31T01:33:02.148Z,8.60
2019-03-31T01:33:48.987Z,8.50
2019-03-31T01:34:35.398Z,8.50
2019-03-31T01:35:21.982Z,8.50
2019-03-31T01:36:08.899Z,8.50
2019-03-31T01:36:55.279Z,8.50
2019-03-31T01:37:41.923Z,8.50
2019-03-31T01:38:28.771Z,8.50
2019-03-31T01:39:15.310Z,8.50
2019-03-31T01:40:01.728Z,8.40
2019-03-31T01:40:48.998Z,8.40
2019-03-31T01:41:35.751Z,8.30
2019-03-31T01:42:22.651Z,8.30
2019-03-31T01:43:09.280Z,8.20
2019-03-31T01:43:55.712Z,8.20
2019-03-31T01:44:42.133Z,8.30
2019-03-31T01:45:28.959Z,8.30
2019-03-31T01:46:16.761Z,8.40
2019-03-31T01:47:03.620Z,8.40
2019-03-31T01:47:50.596Z,8.50
2019-03-31T01:48:37.084Z,8.40
2019-03-31T01:49:23.700Z,8.40
2019-03-31T01:50:13.538Z,8.40
2019-03-31T01:51:00.254Z,8.40
2019-03-31T01:51:46.745Z,8.40
2019-03-31T01:52:33.205Z,8.40
2019-03-31T01:53:19.732Z,8.40
2019-03-31T01:54:06.392Z,8.40
2019-03-31T01:54:53.244Z,8.30
2019-03-31T01:55:39.798Z,8.30
2019-03-31T01:56:26.644Z,8.30
2019-03-31T01:57:13.832Z,8.30
2019-03-31T01:58:00.752Z,8.30
2019-03-31T01:58:47.112Z,8.30
2019-03-31T01:59:33.605Z,8.30
2019-03-31T02:00:51.695Z,8.30
2019-03-31T02:01:41.836Z,8.30
2019-03-31T02:02:29.324Z,8.20
2019-03-31T02:03:16.283Z,8.10
2019-03-31T02:04:03.127Z,8.10
2019-03-31T02:04:49.820Z,8.10
2019-03-31T02:05:38.427Z,8.10
2019-03-31T02:06:25.293Z,8.10
2019-03-31T02:07:11.678Z,8.10
2019-03-31T02:07:58.193Z,8.00
2019-03-31T02:08:45.015Z,8.00
2019-03-31T02:09:31.881Z,8.00
2019-03-31T02:10:18.730Z,7.90
2019-03-31T02:11:05.581Z,7.90
2019-03-31T02:11:52.480Z,7.90
2019-03-31T02:12:38.955Z,7.90
2019-03-31T02:13:25.583Z,7.90
2019-03-31T02:14:12.427Z,7.90
2019-03-31T02:14:59.410Z,7.90
2019-03-31T02:15:46.322Z,7.90
2019-03-31T02:16:32.678Z,7.80
2019-03-31T02:17:19.909Z,7.80
2019-03-31T02:18:06.687Z,7.80
2019-03-31T02:18:53.171Z,7.90
2019-03-31T02:19:39.725Z,7.80
2019-03-31T02:20:26.462Z,7.90
2019-03-31T02:21:12.823Z,7.90
2019-03-31T02:21:59.368Z,7.90
2019-03-31T02:22:46.266Z,7.80
2019-03-31T02:23:32.740Z,7.80
2019-03-31T02:24:19.338Z,7.80
2019-03-31T02:25:06.191Z,7.80
2019-03-31T02:25:52.772Z,7.80
2019-03-31T02:26:39.288Z,7.80
2019-03-31T02:27:25.958Z,7.80
2019-03-31T02:28:12.769Z,7.80
2019-03-31T02:28:59.390Z,7.80
2019-03-31T02:29:46.394Z,7.80
2019-03-31T02:30:32.903Z,7.80
2019-03-31T02:31:20.911Z,7.80
2019-03-31T02:32:22.651Z,7.80
2019-03-31T02:32:55.908Z,7.80
2019-03-31T02:33:42.382Z,7.80
2019-03-31T02:34:28.915Z,7.80
2019-03-31T02:35:15.968Z,7.80
2019-03-31T02:36:02.622Z,7.80
2019-03-31T02:36:49.099Z,7.80
2019-03-31T02:37:35.666Z,7.80
2019-03-31T02:38:22.759Z,7.80
2019-03-31T02:39:09.246Z,7.80
2019-03-31T02:39:55.747Z,7.80
2019-03-31T02:40:42.220Z,7.80
2019-03-31T02:41:28.757Z,7.80
2019-03-31T02:42:15.273Z,7.80
2019-03-31T02:43:02.425Z,7.80
2019-03-31T02:43:49.450Z,7.80
2019-03-31T02:44:35.974Z,7.80
2019-03-31T02:45:22.552Z,7.80
2019-03-31T02:46:09.031Z,7.80
2019-03-31T02:46:55.531Z,7.80
2019-03-31T02:47:42.059Z,7.80
2019-03-31T02:48:28.654Z,7.70
2019-03-31T02:49:15.907Z,7.70
2019-03-31T02:50:02.678Z,7.70
2019-03-31T02:50:50.749Z,7.70
2019-03-31T02:51:37.570Z,7.70
2019-03-31T02:52:24.081Z,7.70
2019-03-31T02:53:10.616Z,7.70
2019-03-31T02:53:57.228Z,7.70
2019-03-31T02:54:44.331Z,7.60
2019-03-31T02:55:31.550Z,7.70
2019-03-31T02:56:18.662Z,7.70
2019-03-31T02:57:06.515Z,7.70
2019-03-31T02:57:53.855Z,7.70
2019-03-31T02:58:40.396Z,7.70
2019-03-31T02:59:30.587Z,7.70
2019-03-31T03:00:17.172Z,7.70
2019-03-31T03:01:04.064Z,7.60
2019-03-31T03:01:51.456Z,7.70
2019-03-31T03:02:41.925Z,7.70
2019-03-31T03:03:28.749Z,7.70
2019-03-31T03:04:17.636Z,7.60
2019-03-31T03:05:18.947Z,7.70
2019-03-31T03:05:55.444Z,7.70
2019-03-31T03:06:42.860Z,7.60
2019-03-31T03:07:29.524Z,7.60
2019-03-31T03:08:18.288Z,7.70
2019-03-31T03:09:06.250Z,7.60
2019-03-31T03:09:55.332Z,7.60
2019-03-31T03:10:43.218Z,7.60
2019-03-31T03:11:31.328Z,7.50
2019-03-31T03:12:19.341Z,7.50
2019-03-31T03:13:07.948Z,7.50
2019-03-31T03:13:58.077Z,7.40
2019-03-31T03:14:48.689Z,7.40
2019-03-31T03:15:44.703Z,7.40
2019-03-31T03:16:31.626Z,7.40
2019-03-31T03:17:17.913Z,7.40
2019-03-31T03:18:04.804Z,7.40
2019-03-31T03:18:51.853Z,7.40
2019-03-31T03:19:38.579Z,7.40
2019-03-31T03:20:25.115Z,7.40
2019-03-31T03:21:11.986Z,7.40
2019-03-31T03:21:58.422Z,7.40
2019-03-31T03:22:44.900Z,7.40
2019-03-31T03:23:31.334Z,7.40
2019-03-31T03:24:17.795Z,7.40
2019-03-31T03:25:04.920Z,7.40
2019-03-31T03:25:56.338Z,7.30
2019-03-31T03:26:39.997Z,7.30
2019-03-31T03:27:26.386Z,7.30
2019-03-31T03:28:12.880Z,7.30
2019-03-31T03:28:59.635Z,7.30
2019-03-31T03:29:46.476Z,7.20
2019-03-31T03:30:33.771Z,7.30
2019-03-31T03:31:20.713Z,7.30
2019-03-31T03:32:07.419Z,7.30
2019-03-31T03:33:13.544Z,7.20
2019-03-31T03:33:42.862Z,7.30
2019-03-31T03:34:29.842Z,7.30
2019-03-31T03:35:16.837Z,7.30
2019-03-31T03:36:03.772Z,7.20
2019-03-31T03:36:50.814Z,7.20
2019-03-31T03:37:37.652Z,7.20
2019-03-31T03:38:24.529Z,7.20
2019-03-31T03:39:11.465Z,7.20
2019-03-31T03:39:58.439Z,7.20
2019-03-31T03:40:45.043Z,7.20
2019-03-31T03:41:31.728Z,7.20
2019-03-31T03:42:18.139Z,7.20
2019-03-31T03:43:04.709Z,7.20
2019-03-31T03:43:55.611Z,7.20
2019-03-31T03:44:39.920Z,7.20
2019-03-31T03:45:26.791Z,7.20
2019-03-31T03:46:13.853Z,7.20
2019-03-31T03:47:00.354Z,7.20
2019-03-31T03:47:46.826Z,7.20
2019-03-31T03:48:33.753Z,7.20
2019-03-31T03:49:20.317Z,7.20
2019-03-31T03:50:07.291Z,7.10
2019-03-31T03:50:54.070Z,7.10
2019-03-31T03:51:40.609Z,7.10
2019-03-31T03:52:27.512Z,7.10
2019-03-31T03:53:14.380Z,7.10
2019-03-31T03:54:00.861Z,7.10
2019-03-31T03:54:47.294Z,7.10
2019-03-31T03:55:33.635Z,7.10
2019-03-31T03:56:20.002Z,7.20
2019-03-31T03:57:06.348Z,7.20
2019-03-31T03:57:52.735Z,7.10
2019-03-31T03:58:39.135Z,7.20
2019-03-31T03:59:25.576Z,7.20
2019-03-31T04:00:12.152Z,7.20
2019-03-31T04:00:58.660Z,7.20
2019-03-31T04:01:45.583Z,7.10
2019-03-31T04:02:31.949Z,7.10
2019-03-31T04:03:30.175Z,7.10
2019-03-31T04:04:07.173Z,7.10
2019-03-31T04:04:54.000Z,7.10
2019-03-31T04:05:40.990Z,7.00
2019-03-31T04:06:27.434Z,7.10
2019-03-31T04:07:14.379Z,7.10
2019-03-31T04:08:00.692Z,7.10
2019-03-31T04:08:47.159Z,7.10
2019-03-31T04:09:33.695Z,7.10
2019-03-31T04:11:13.718Z,7.10
2019-03-31T04:12:00.402Z,7.10
2019-03-31T04:12:47.368Z,7.10
2019-03-31T04:13:34.418Z,7.10
2019-03-31T04:14:20.919Z,7.10
2019-03-31T04:15:07.913Z,7.00
2019-03-31T04:15:54.868Z,7.00
2019-03-31T04:16:41.443Z,7.00
2019-03-31T04:17:28.357Z,7.00
2019-03-31T04:18:15.371Z,7.00
2019-03-31T04:19:02.503Z,7.00
2019-03-31T04:19:49.437Z,7.00
2019-03-31T04:20:39.293Z,7.00
2019-03-31T04:21:25.890Z,7.10
2019-03-31T04:22:12.707Z,7.10
2019-03-31T04:22:59.404Z,7.10
2019-03-31T04:23:46.617Z,7.10
2019-03-31T04:24:33.952Z,7.10
2019-03-31T04:25:21.040Z,7.10
2019-03-31T04:26:07.754Z,7.10
2019-03-31T04:26:54.918Z,7.10
2019-03-31T04:27:42.000Z,7.10
2019-03-31T04:28:28.621Z,7.10
2019-03-31T04:29:15.792Z,7.10
2019-03-31T04:30:02.368Z,7.10
2019-03-31T04:30:49.427Z,7.10
2019-03-31T04:31:36.087Z,7.20
2019-03-31T04:32:23.083Z,7.20
2019-03-31T04:33:09.633Z,7.20
2019-03-31T04:33:56.195Z,7.20
2019-03-31T04:34:43.468Z,7.10
2019-03-31T04:35:30.008Z,7.20
2019-03-31T04:36:16.648Z,7.20
2019-03-31T04:37:03.810Z,7.20
2019-03-31T04:37:50.984Z,7.20
2019-03-31T04:38:37.604Z,7.20
2019-03-31T04:39:24.285Z,7.30
2019-03-31T04:40:11.203Z,7.30
2019-03-31T04:40:58.029Z,7.30
2019-03-31T04:41:44.645Z,7.30
2019-03-31T04:42:31.264Z,7.30
2019-03-31T04:43:17.876Z,7.30
2019-03-31T04:44:04.491Z,7.30
2019-03-31T04:44:51.088Z,7.30
2019-03-31T04:45:37.719Z,7.30
2019-03-31T04:46:24.849Z,7.40
2019-03-31T04:47:12.010Z,7.40
2019-03-31T04:47:59.249Z,7.40
2019-03-31T04:48:46.408Z,7.40
2019-03-31T04:49:33.585Z,7.40
2019-03-31T04:50:20.270Z,7.50
2019-03-31T04:51:07.582Z,7.50
2019-03-31T04:51:54.182Z,7.40
2019-03-31T04:52:41.347Z,7.40
2019-03-31T04:53:27.899Z,7.40
2019-03-31T04:54:14.429Z,7.40
2019-03-31T04:55:01.055Z,7.50
2019-03-31T04:55:48.272Z,7.40
2019-03-31T04:56:34.891Z,7.50
2019-03-31T04:57:21.485Z,7.40
2019-03-31T04:58:08.083Z,7.40
2019-03-31T04:58:54.812Z,7.50
2019-03-31T04:59:41.643Z,7.40
2019-03-31T05:00:28.610Z,7.40
2019-03-31T05:01:15.252Z,7.50
2019-03-31T05:02:01.834Z,7.40
2019-03-31T05:02:51.569Z,7.50
2019-03-31T05:03:38.208Z,7.40
2019-03-31T05:04:24.773Z,7.50
2019-03-31T05:05:11.232Z,7.50
2019-03-31T05:05:57.768Z,7.50
2019-03-31T05:06:44.482Z,7.50
2019-03-31T05:07:31.300Z,7.50
2019-03-31T05:08:18.208Z,7.50
2019-03-31T05:09:05.641Z,7.40
2019-03-31T05:09:52.417Z,7.50
2019-03-31T05:10:39.412Z,7.50
2019-03-31T05:11:25.903Z,7.50
2019-03-31T05:12:12.530Z,7.50
2019-03-31T05:12:59.747Z,7.50
2019-03-31T05:13:46.411Z,7.50
2019-03-31T05:14:32.971Z,7.50
2019-03-31T05:15:20.068Z,7.50
2019-03-31T05:16:06.644Z,7.50
2019-03-31T05:16:53.284Z,7.50
2019-03-31T05:17:40.184Z,7.50
2019-03-31T05:18:27.155Z,7.50
2019-03-31T05:19:13.758Z,7.60
2019-03-31T05:20:00.501Z,7.50
2019-03-31T05:20:47.516Z,7.50
2019-03-31T05:21:34.202Z,7.50
2019-03-31T05:22:20.814Z,7.50
2019-03-31T05:23:07.505Z,7.50
2019-03-31T05:23:54.257Z,7.50
2019-03-31T05:24:41.843Z,7.50
2019-03-31T05:25:28.534Z,7.50
2019-03-31T05:26:15.706Z,7.50
2019-03-31T05:27:02.423Z,7.50
2019-03-31T05:27:49.407Z,7.60
2019-03-31T05:28:36.115Z,7.60
2019-03-31T05:29:22.709Z,7.60
2019-03-31T05:30:09.572Z,7.60
2019-03-31T05:30:56.441Z,7.60
2019-03-31T05:31:43.047Z,7.60
2019-03-31T05:32:29.772Z,7.60
2019-03-31T05:33:16.822Z,7.60
2019-03-31T05:34:18.094Z,7.60
2019-03-31T05:34:52.195Z,7.60
2019-03-31T05:35:38.772Z,7.60
2019-03-31T05:36:25.347Z,7.60
2019-03-31T05:37:12.091Z,7.60
2019-03-31T05:37:59.330Z,7.60
2019-03-31T05:38:46.460Z,7.60
2019-03-31T05:39:33.128Z,7.70
2019-03-31T05:40:20.253Z,7.70
2019-03-31T05:41:06.848Z,7.80
2019-03-31T05:41:53.366Z,7.80
2019-03-31T05:42:40.025Z,7.80
2019-03-31T05:43:26.687Z,7.80
2019-03-31T05:44:13.339Z,7.80
2019-03-31T05:44:59.936Z,7.90
2019-03-31T05:45:47.679Z,7.90
2019-03-31T05:46:34.697Z,7.90
2019-03-31T05:47:21.448Z,7.90
2019-03-31T05:48:08.020Z,7.90
2019-03-31T05:48:55.285Z,7.90
2019-03-31T05:49:42.739Z,7.90
2019-03-31T05:50:29.791Z,8.00
2019-03-31T05:51:17.022Z,8.00
2019-03-31T05:52:04.054Z,8.00
2019-03-31T05:52:50.615Z,8.00
2019-03-31T05:53:37.274Z,8.00
2019-03-31T05:54:23.959Z,8.00
2019-03-31T05:55:12.067Z,8.10
2019-03-31T05:55:58.947Z,8.10
2019-03-31T05:56:45.566Z,8.10
2019-03-31T05:57:32.134Z,8.10
2019-03-31T05:58:19.269Z,8.10
2019-03-31T05:59:05.907Z,8.10
2019-03-31T05:59:52.869Z,8.10
2019-03-31T06:00:44.781Z,8.20
2019-03-31T06:01:31.770Z,8.20
2019-03-31T06:02:18.710Z,8.20
2019-03-31T06:03:05.136Z,8.20
2019-03-31T06:03:51.637Z,8.20
2019-03-31T06:04:38.031Z,8.20
2019-03-31T06:05:24.504Z,8.30
2019-03-31T06:06:12.374Z,8.30
2019-03-31T06:06:59.318Z,8.30
2019-03-31T06:07:45.727Z,8.30
2019-03-31T06:08:35.131Z,8.40
2019-03-31T06:09:21.591Z,8.40
2019-03-31T06:10:08.038Z,8.40
2019-03-31T06:10:54.559Z,8.50
2019-03-31T06:11:41.044Z,8.50
2019-03-31T06:12:27.450Z,8.60
2019-03-31T06:13:13.937Z,8.60
2019-03-31T06:14:01.025Z,8.70
2019-03-31T06:14:47.563Z,8.70
2019-03-31T06:15:34.496Z,8.70
2019-03-31T06:16:20.944Z,8.70
2019-03-31T06:17:07.909Z,8.70
2019-03-31T06:17:54.282Z,8.80
2019-03-31T06:18:40.708Z,8.90
2019-03-31T06:19:27.209Z,8.90
2019-03-31T06:20:13.681Z,8.90
2019-03-31T06:21:00.227Z,9.00
2019-03-31T06:21:46.733Z,9.00
2019-03-31T06:22:33.247Z,9.00
2019-03-31T06:23:19.807Z,9.10
2019-03-31T06:24:06.344Z,9.10
2019-03-31T06:24:53.399Z,9.20
2019-03-31T06:25:39.943Z,9.20
2019-03-31T06:26:26.412Z,9.20
2019-03-31T06:27:15.711Z,9.20
2019-03-31T06:28:01.511Z,9.30
2019-03-31T06:28:47.899Z,9.30
2019-03-31T06:29:34.502Z,9.40
2019-03-31T06:30:21.101Z,9.40
2019-03-31T06:31:07.711Z,9.50
2019-03-31T06:31:54.278Z,9.50
2019-03-31T06:32:40.794Z,9.60
2019-03-31T06:33:27.403Z,9.60
2019-03-31T06:34:14.534Z,9.60
2019-03-31T06:35:01.285Z,9.70
2019-03-31T06:35:47.835Z,9.70
2019-03-31T06:36:34.552Z,9.80
2019-03-31T06:37:21.151Z,9.80
2019-03-31T06:38:07.865Z,9.80
2019-03-31T06:38:54.631Z,9.90
2019-03-31T06:39:41.315Z,9.90
2019-03-31T06:40:28.384Z,9.90
2019-03-31T06:41:15.633Z,9.90
2019-03-31T06:42:02.390Z,9.90
2019-03-31T06:42:49.007Z,9.90
2019-03-31T06:43:36.327Z,9.90
2019-03-31T06:44:23.174Z,10.00
2019-03-31T06:45:10.042Z,10.00
2019-03-31T06:45:56.926Z,10.00
2019-03-31T06:46:43.611Z,10.00
2019-03-31T06:47:30.360Z,10.00
2019-03-31T06:48:17.551Z,10.00
2019-03-31T06:49:04.769Z,10.00
2019-03-31T06:49:51.446Z,10.00
2019-03-31T06:50:38.142Z,10.00
2019-03-31T06:51:24.820Z,10.00
2019-03-31T06:52:12.197Z,10.00
2019-03-31T06:52:59.118Z,10.00
2019-03-31T06:53:46.375Z,10.10
2019-03-31T06:54:32.981Z,10.10
2019-03-31T06:55:19.673Z,10.20
2019-03-31T06:56:06.314Z,10.30
2019-03-31T06:56:53.587Z,10.30
2019-03-31T06:57:41.224Z,10.30
2019-03-31T06:58:28.044Z,10.40
2019-03-31T06:59:14.717Z,10.40
2019-03-31T07:00:01.411Z,10.50
2019-03-31T07:00:48.604Z,10.50
2019-03-31T07:01:35.618Z,10.60
2019-03-31T07:02:22.241Z,10.60
2019-03-31T07:03:08.876Z,10.60
2019-03-31T07:03:55.563Z,10.60
2019-03-31T07:04:42.157Z,10.70
2019-03-31T07:05:28.852Z,10.70
2019-03-31T07:06:16.031Z,10.80
2019-03-31T07:07:02.687Z,10.80
2019-03-31T07:07:49.451Z,10.80
2019-03-31T07:08:36.767Z,10.80
2019-03-31T07:09:23.838Z,10.80
2019-03-31T07:10:10.426Z,10.90
2019-03-31T07:10:57.122Z,10.90
2019-03-31T07:11:43.891Z,11.00
2019-03-31T07:12:31.195Z,11.00
2019-03-31T07:13:18.269Z,11.00
2019-03-31T07:14:05.668Z,11.10
2019-03-31T07:14:52.459Z,11.20
2019-03-31T07:15:39.131Z,11.30
2019-03-31T07:16:25.734Z,11.30
2019-03-31T07:17:12.811Z,11.40
2019-03-31T07:17:59.475Z,11.40
2019-03-31T07:18:46.136Z,11.40
2019-03-31T07:19:32.835Z,11.40
2019-03-31T07:20:20.454Z,11.30
2019-03-31T07:21:07.175Z,11.30
2019-03-31T07:21:53.713Z,11.30
2019-03-31T07:22:40.334Z,11.30
2019-03-31T07:23:26.965Z,11.20
2019-03-31T07:24:14.130Z,11.20
2019-03-31T07:25:00.808Z,11.20
2019-03-31T07:25:47.948Z,11.20
2019-03-31T07:26:34.640Z,11.20
2019-03-31T07:27:21.271Z,11.10
2019-03-31T07:28:07.926Z,11.10
2019-03-31T07:28:54.654Z,11.00
2019-03-31T07:29:41.251Z,10.90
2019-03-31T07:30:27.925Z,10.90
2019-03-31T07:31:15.011Z,10.90
2019-03-31T07:32:01.616Z,10.90
2019-03-31T07:32:48.770Z,10.80
2019-03-31T07:33:35.483Z,10.80
2019-03-31T07:34:22.011Z,10.70
2019-03-31T07:35:18.180Z,10.60
2019-03-31T07:35:58.131Z,10.70
2019-03-31T07:36:44.722Z,10.60
2019-03-31T07:37:31.315Z,10.50
2019-03-31T07:38:18.646Z,10.50
2019-03-31T07:39:06.643Z,10.40
2019-03-31T07:39:53.322Z,10.50
2019-03-31T07:40:40.527Z,10.50
2019-03-31T07:41:27.570Z,10.50
2019-03-31T07:42:14.540Z,10.50
2019-03-31T07:43:01.561Z,10.40
2019-03-31T07:43:49.519Z,10.40
2019-03-31T07:44:36.329Z,10.40
2019-03-31T07:45:23.794Z,10.40
2019-03-31T07:46:10.360Z,10.30
2019-03-31T07:46:57.339Z,10.30
2019-03-31T07:47:44.033Z,10.30
2019-03-31T07:48:30.760Z,10.30
2019-03-31T07:49:17.267Z,10.30
2019-03-31T07:50:04.746Z,10.30
2019-03-31T07:50:51.412Z,10.30
2019-03-31T07:51:37.858Z,10.20
2019-03-31T07:52:24.782Z,10.10
2019-03-31T07:53:11.297Z,10.10
2019-03-31T07:53:57.806Z,10.10
2019-03-31T07:54:44.223Z,10.10
2019-03-31T07:55:30.825Z,10.20
2019-03-31T07:56:17.895Z,10.20
2019-03-31T07:57:06.974Z,10.30
2019-03-31T07:57:54.565Z,10.20
2019-03-31T07:58:41.811Z,10.10
2019-03-31T07:59:28.770Z,10.10
2019-03-31T08:00:17.410Z,10.00
2019-03-31T08:01:04.187Z,10.00
2019-03-31T08:01:50.670Z,10.00
2019-03-31T08:02:37.231Z,10.00
2019-03-31T08:03:24.358Z,9.90
2019-03-31T08:04:11.263Z,9.80
2019-03-31T08:04:57.714Z,9.80
2019-03-31T08:05:44.247Z,9.80
2019-03-31T08:06:31.162Z,9.80
2019-03-31T08:07:18.170Z,9.80
2019-03-31T08:08:04.658Z,9.80
2019-03-31T08:08:53.385Z,9.80
2019-03-31T08:09:39.525Z,9.70
2019-03-31T08:10:25.953Z,9.60
2019-03-31T08:11:17.046Z,9.60
2019-03-31T08:12:04.342Z,9.70
2019-03-31T08:12:50.839Z,9.70
2019-03-31T08:13:37.376Z,9.70
2019-03-31T08:14:24.234Z,9.70
2019-03-31T08:15:11.098Z,9.70
2019-03-31T08:15:57.536Z,9.60
2019-03-31T08:16:43.952Z,9.60
2019-03-31T08:17:30.464Z,9.60
2019-03-31T08:18:17.364Z,9.50
2019-03-31T08:19:03.851Z,9.60
2019-03-31T08:19:50.964Z,9.60
2019-03-31T08:20:37.824Z,9.60
2019-03-31T08:21:24.287Z,9.50
2019-03-31T08:22:11.289Z,9.50
2019-03-31T08:22:58.235Z,9.40
2019-03-31T08:23:45.252Z,9.50
2019-03-31T08:24:42.280Z,9.40
2019-03-31T08:25:28.979Z,9.40
2019-03-31T08:26:15.574Z,9.30
2019-03-31T08:27:05.503Z,9.40
2019-03-31T08:27:51.020Z,9.40
2019-03-31T08:28:37.451Z,9.30
2019-03-31T08:29:23.968Z,9.20
2019-03-31T08:30:12.118Z,9.20
2019-03-31T08:30:58.871Z,9.20
2019-03-31T08:31:45.429Z,9.20
2019-03-31T08:32:32.388Z,9.20
2019-03-31T08:33:19.312Z,9.20
2019-03-31T08:34:05.711Z,9.20
2019-03-31T08:34:52.111Z,9.10
2019-03-31T08:35:47.214Z,9.10
2019-03-31T08:36:26.864Z,9.10
2019-03-31T08:37:13.503Z,9.10
2019-03-31T08:37:59.908Z,9.10
2019-03-31T08:38:46.451Z,9.20
2019-03-31T08:39:33.052Z,9.20
2019-03-31T08:40:19.417Z,9.20
2019-03-31T08:41:05.766Z,9.20
2019-03-31T08:41:52.665Z,9.20
2019-03-31T08:42:47.574Z,9.20
2019-03-31T08:43:37.107Z,9.20
2019-03-31T08:44:25.827Z,9.20
2019-03-31T08:45:14.260Z,9.10
2019-03-31T08:46:01.893Z,9.10
2019-03-31T08:46:48.885Z,9.10
2019-03-31T08:47:36.162Z,9.00
2019-03-31T08:48:25.166Z,9.10
2019-03-31T08:49:33.057Z,9.00
2019-03-31T08:50:22.639Z,9.00
2019-03-31T08:51:09.933Z,9.10
2019-03-31T08:51:56.934Z,9.10
2019-03-31T08:52:46.736Z,9.20
2019-03-31T08:53:37.805Z,9.20
2019-03-31T08:54:25.574Z,9.10
2019-03-31T08:55:12.712Z,9.10
2019-03-31T08:55:59.610Z,9.20
2019-03-31T08:56:46.262Z,9.20
2019-03-31T08:57:33.436Z,9.10
2019-03-31T08:58:20.290Z,9.10
2019-03-31T08:59:07.048Z,9.00
2019-03-31T08:59:54.044Z,9.10
2019-03-31T09:00:50.225Z,9.00
2019-03-31T09:01:37.120Z,9.00
2019-03-31T09:02:33.005Z,9.00
2019-03-31T09:03:19.653Z,9.00
2019-03-31T09:04:06.660Z,9.10
2019-03-31T09:04:53.680Z,9.10
2019-03-31T09:05:40.596Z,9.10
2019-03-31T09:06:27.613Z,9.00
2019-03-31T09:07:14.600Z,9.10
2019-03-31T09:08:01.460Z,9.10
2019-03-31T09:08:48.560Z,9.10
2019-03-31T09:09:35.114Z,9.10
2019-03-31T09:10:22.095Z,9.10
2019-03-31T09:11:09.027Z,9.10
2019-03-31T09:11:55.462Z,9.00
2019-03-31T09:12:42.291Z,9.10
2019-03-31T09:13:29.291Z,9.10
2019-03-31T09:14:16.202Z,9.10
2019-03-31T09:15:02.776Z,9.10
2019-03-31T09:15:49.935Z,9.10
2019-03-31T09:16:36.926Z,9.00
2019-03-31T09:17:23.905Z,9.00
2019-03-31T09:18:10.845Z,9.10
2019-03-31T09:18:57.757Z,9.10
2019-03-31T09:19:50.128Z,9.00
2019-03-31T09:20:36.851Z,9.00
2019-03-31T09:21:23.510Z,9.00
2019-03-31T09:22:10.185Z,9.00
2019-03-31T09:22:57.284Z,9.00
2019-03-31T09:23:43.860Z,9.00
2019-03-31T09:24:30.463Z,9.00
2019-03-31T09:25:17.629Z,9.00
2019-03-31T09:26:04.940Z,9.00
2019-03-31T09:26:51.547Z,9.00
2019-03-31T09:27:38.160Z,9.00
2019-03-31T09:28:24.786Z,9.00
2019-03-31T09:29:11.899Z,9.00
2019-03-31T09:29:58.990Z,9.00
2019-03-31T09:30:45.944Z,9.10
2019-03-31T09:31:32.453Z,9.10
2019-03-31T09:32:19.041Z,9.10
2019-03-31T09:33:05.667Z,9.10
2019-03-31T09:33:52.260Z,9.10
2019-03-31T09:34:38.816Z,9.10
2019-03-31T09:35:25.267Z,9.10
2019-03-31T09:36:16.520Z,9.00
2019-03-31T09:37:00.587Z,9.00
2019-03-31T09:37:47.809Z,9.00
2019-03-31T09:38:34.727Z,9.00
2019-03-31T09:39:21.381Z,9.00
2019-03-31T09:40:09.153Z,9.00
2019-03-31T09:40:56.598Z,9.10
2019-03-31T09:41:43.676Z,9.10
2019-03-31T09:42:31.180Z,9.00
2019-03-31T09:43:18.403Z,9.00
2019-03-31T09:44:05.174Z,9.00
2019-03-31T09:44:52.100Z,9.00
2019-03-31T09:45:38.753Z,9.00
2019-03-31T09:46:25.879Z,9.00
2019-03-31T09:47:12.517Z,9.00
2019-03-31T09:47:59.071Z,9.00
2019-03-31T09:48:47.862Z,9.10
2019-03-31T09:49:34.563Z,9.10
2019-03-31T09:50:21.146Z,9.20
2019-03-31T09:51:08.383Z,9.20
2019-03-31T09:51:54.884Z,9.20
2019-03-31T09:52:41.996Z,9.20
2019-03-31T09:53:29.095Z,9.30
2019-03-31T09:54:16.037Z,9.30
2019-03-31T09:55:02.678Z,9.30
2019-03-31T09:55:49.719Z,9.40
2019-03-31T09:56:36.630Z,9.30
2019-03-31T09:57:23.581Z,9.30
2019-03-31T09:58:10.068Z,9.30
2019-03-31T09:58:56.748Z,9.40
2019-03-31T09:59:43.206Z,9.40
2019-03-31T10:00:45.590Z,9.40
2019-03-31T10:01:32.222Z,9.50
2019-03-31T10:02:19.657Z,9.50
2019-03-31T10:03:06.196Z,9.50
2019-03-31T10:03:52.886Z,9.50
2019-03-31T10:04:39.859Z,9.50
2019-03-31T10:05:26.466Z,9.50
2019-03-31T10:06:13.132Z,9.50
2019-03-31T10:07:01.585Z,9.60
2019-03-31T10:07:48.426Z,9.60
2019-03-31T10:08:34.891Z,9.60
2019-03-31T10:09:21.566Z,9.60
2019-03-31T10:10:10.574Z,9.60
2019-03-31T10:10:57.195Z,9.60
2019-03-31T10:11:44.180Z,9.60
2019-03-31T10:12:30.930Z,9.60
2019-03-31T10:13:17.887Z,9.60
2019-03-31T10:14:04.376Z,9.60
2019-03-31T10:14:54.075Z,9.50
2019-03-31T10:15:39.546Z,9.50
2019-03-31T10:16:26.490Z,9.50
2019-03-31T10:17:13.378Z,9.60
2019-03-31T10:17:59.945Z,9.60
2019-03-31T10:18:47.108Z,9.50
2019-03-31T10:19:34.119Z,9.60
2019-03-31T10:20:21.189Z,9.60
2019-03-31T10:21:08.158Z,9.60
2019-03-31T10:21:55.318Z,9.60
2019-03-31T10:22:42.382Z,9.60
2019-03-31T10:23:29.339Z,9.70
2019-03-31T10:24:16.275Z,9.70
2019-03-31T10:25:03.653Z,9.70
2019-03-31T10:25:50.576Z,9.70
2019-03-31T10:26:37.068Z,9.70
2019-03-31T10:27:24.072Z,9.60